sensor_id;sensor_type;location;lat;lon;timestamp;P1;durP1;ratioP1;P2;durP2;ratioP2
72123;SDS011;63818;37.134;-8.548;2023-07-29T00:03:17;9.8;;;5.1;;
72123;SDS011;63818;37.134;-8.548;2023-07-29T00:08:03;9.5;;;5.1;;
72123;SDS011;63818;37.134;-8.548;2023-07-29T00:12:49;8.6;;;4.9;;
72123;SDS011;63818;37.134;-8.548;2023-07-29T00:17:35;9.4;;;4.8;;
72123;SDS011;63818;37.134;-8.548;2023-07-29T00:22:21;9.3;;;4.9;;
72123;SDS011;63818;37.134;-8.548;2023-07-29T00:27:09;8.2;;;4.9;;
72123;SDS011;63818;37.134;-8.548;2023-07-29T00:31:55;10.9;;;5.1;;
72123;SDS011;63818;37.134;-8.548;2023-07-29T00:36:41;11.2;;;5.2;;
72123;SDS011;63818;37.134;-8.548;2023-07-29T00:41:27;9.2;;;4.9;;
72123;SDS011;63818;37.134;-8.548;2023-07-29T00:46:13;12.4;;;5.1;;
72123;SDS011;63818;37.134;-8.548;2023-07-29T00:51:00;12.9;;;5.3;;
72123;SDS011;63818;37.134;-8.548;2023-07-29T00:55:48;9.6;;;5.2;;
72123;SDS011;63818;37.134;-8.548;2023-07-29T01:00:37;9.2;;;5.1;;
72123;SDS011;63818;37.134;-8.548;2023-07-29T01:05:23;9.5;;;5.3;;
72123;SDS011;63818;37.134;-8.548;2023-07-29T01:10:18;9.9;;;5.5;;
72123;SDS011;63818;37.134;-8.548;2023-07-29T01:15:12;10.1;;;5.3;;
72123;SDS011;63818;37.134;-8.548;2023-07-29T01:20:04;9.3;;;5.0;;
72123;SDS011;63818;37.134;-8.548;2023-07-29T01:24:53;8.8;;;5.1;;
72123;SDS011;63818;37.134;-8.548;2023-07-29T01:29:39;9.3;;;5.3;;
72123;SDS011;63818;37.134;-8.548;2023-07-29T01:34:26;11.4;;;5.4;;
72123;SDS011;63818;37.134;-8.548;2023-07-29T01:39:18;11.0;;;5.5;;
72123;SDS011;63818;37.134;-8.548;2023-07-29T01:44:07;10.0;;;5.8;;
72123;SDS011;63818;37.134;-8.548;2023-07-29T01:48:56;12.1;;;5.6;;
72123;SDS011;63818;37.134;-8.548;2023-07-29T01:53:41;12.9;;;5.3;;
72123;SDS011;63818;37.134;-8.548;2023-07-29T01:58:28;10.3;;;5.1;;
72123;SDS011;63818;37.134;-8.548;2023-07-29T02:03:14;9.6;;;5.4;;
72123;SDS011;63818;37.134;-8.548;2023-07-29T02:08:00;12.7;;;5.6;;
72123;SDS011;63818;37.134;-8.548;2023-07-29T02:12:46;12.2;;;5.4;;
72123;SDS011;63818;37.134;-8.548;2023-07-29T02:17:32;10.9;;;5.3;;
72123;SDS011;63818;37.134;-8.548;2023-07-29T02:22:17;10.2;;;5.3;;
72123;SDS011;63818;37.134;-8.548;2023-07-29T02:27:04;8.8;;;5.3;;
72123;SDS011;63818;37.134;-8.548;2023-07-29T02:31:50;9.0;;;5.6;;
72123;SDS011;63818;37.134;-8.548;2023-07-29T02:36:36;9.2;;;5.6;;
72123;SDS011;63818;37.134;-8.548;2023-07-29T02:41:23;10.0;;;5.4;;
72123;SDS011;63818;37.134;-8.548;2023-07-29T02:46:10;12.6;;;5.3;;
72123;SDS011;63818;37.134;-8.548;2023-07-29T02:50:56;13.3;;;5.4;;
72123;SDS011;63818;37.134;-8.548;2023-07-29T02:55:42;12.1;;;5.6;;
72123;SDS011;63818;37.134;-8.548;2023-07-29T03:00:28;11.4;;;5.5;;
72123;SDS011;63818;37.134;-8.548;2023-07-29T03:05:17;12.8;;;5.4;;
72123;SDS011;63818;37.134;-8.548;2023-07-29T03:10:02;12.6;;;5.6;;
72123;SDS011;63818;37.134;-8.548;2023-07-29T03:14:49;10.8;;;5.9;;
72123;SDS011;63818;37.134;-8.548;2023-07-29T03:19:35;10.6;;;5.8;;
72123;SDS011;63818;37.134;-8.548;2023-07-29T03:24:21;10.7;;;5.6;;
72123;SDS011;63818;37.134;-8.548;2023-07-29T03:29:07;12.6;;;5.6;;
72123;SDS011;63818;37.134;-8.548;2023-07-29T03:33:53;11.4;;;5.4;;
72123;SDS011;63818;37.134;-8.548;2023-07-29T03:38:39;8.9;;;5.7;;
72123;SDS011;63818;37.134;-8.548;2023-07-29T03:43:25;9.3;;;5.8;;
72123;SDS011;63818;37.134;-8.548;2023-07-29T03:48:11;9.3;;;5.3;;
72123;SDS011;63818;37.134;-8.548;2023-07-29T03:52:57;9.6;;;5.2;;
72123;SDS011;63818;37.134;-8.548;2023-07-29T03:57:43;9.3;;;5.2;;
72123;SDS011;63818;37.134;-8.548;2023-07-29T04:02:30;9.5;;;5.1;;
72123;SDS011;63818;37.134;-8.548;2023-07-29T04:07:16;10.3;;;5.3;;
72123;SDS011;63818;37.134;-8.548;2023-07-29T04:12:02;9.8;;;5.3;;
72123;SDS011;63818;37.134;-8.548;2023-07-29T04:16:48;9.1;;;4.9;;
72123;SDS011;63818;37.134;-8.548;2023-07-29T04:21:36;8.0;;;4.9;;
72123;SDS011;63818;37.134;-8.548;2023-07-29T04:26:22;7.8;;;4.9;;
72123;SDS011;63818;37.134;-8.548;2023-07-29T04:31:08;9.4;;;4.9;;
72123;SDS011;63818;37.134;-8.548;2023-07-29T04:35:54;9.7;;;5.1;;
72123;SDS011;63818;37.134;-8.548;2023-07-29T04:40:43;8.8;;;5.1;;
72123;SDS011;63818;37.134;-8.548;2023-07-29T04:45:31;9.8;;;5.1;;
72123;SDS011;63818;37.134;-8.548;2023-07-29T04:50:19;8.7;;;4.9;;
72123;SDS011;63818;37.134;-8.548;2023-07-29T04:55:05;7.5;;;4.8;;
72123;SDS011;63818;37.134;-8.548;2023-07-29T04:59:52;8.1;;;4.8;;
72123;SDS011;63818;37.134;-8.548;2023-07-29T05:04:38;9.5;;;4.7;;
72123;SDS011;63818;37.134;-8.548;2023-07-29T05:09:24;8.6;;;4.6;;
72123;SDS011;63818;37.134;-8.548;2023-07-29T05:14:10;6.8;;;4.6;;
72123;SDS011;63818;37.134;-8.548;2023-07-29T05:18:56;7.4;;;4.6;;
72123;SDS011;63818;37.134;-8.548;2023-07-29T05:23:44;7.2;;;4.5;;
72123;SDS011;63818;37.134;-8.548;2023-07-29T05:28:30;6.8;;;4.4;;
72123;SDS011;63818;37.134;-8.548;2023-07-29T05:33:16;6.3;;;4.3;;
72123;SDS011;63818;37.134;-8.548;2023-07-29T05:38:02;7.2;;;4.5;;
72123;SDS011;63818;37.134;-8.548;2023-07-29T05:42:48;8.1;;;4.6;;
72123;SDS011;63818;37.134;-8.548;2023-07-29T05:47:34;7.2;;;4.5;;
72123;SDS011;63818;37.134;-8.548;2023-07-29T05:52:19;8.0;;;4.5;;
72123;SDS011;63818;37.134;-8.548;2023-07-29T05:57:06;8.9;;;4.6;;
72123;SDS011;63818;37.134;-8.548;2023-07-29T06:01:52;9.3;;;4.7;;
72123;SDS011;63818;37.134;-8.548;2023-07-29T06:06:38;9.0;;;4.6;;
72123;SDS011;63818;37.134;-8.548;2023-07-29T06:11:24;7.9;;;4.5;;
72123;SDS011;63818;37.134;-8.548;2023-07-29T06:16:10;8.5;;;4.5;;
72123;SDS011;63818;37.134;-8.548;2023-07-29T06:20:57;8.8;;;4.5;;
72123;SDS011;63818;37.134;-8.548;2023-07-29T06:25:43;7.8;;;4.4;;
72123;SDS011;63818;37.134;-8.548;2023-07-29T06:30:29;7.2;;;4.4;;
72123;SDS011;63818;37.134;-8.548;2023-07-29T06:35:15;7.2;;;4.4;;
72123;SDS011;63818;37.134;-8.548;2023-07-29T06:40:02;6.8;;;4.6;;
72123;SDS011;63818;37.134;-8.548;2023-07-29T06:44:48;6.5;;;4.4;;
72123;SDS011;63818;37.134;-8.548;2023-07-29T06:49:34;6.2;;;4.2;;
72123;SDS011;63818;37.134;-8.548;2023-07-29T06:54:22;6.8;;;4.5;;
72123;SDS011;63818;37.134;-8.548;2023-07-29T06:59:09;8.0;;;4.6;;
72123;SDS011;63818;37.134;-8.548;2023-07-29T07:03:55;7.9;;;4.4;;
72123;SDS011;63818;37.134;-8.548;2023-07-29T07:08:41;7.2;;;4.5;;
72123;SDS011;63818;37.134;-8.548;2023-07-29T07:13:27;6.8;;;4.4;;
72123;SDS011;63818;37.134;-8.548;2023-07-29T07:18:13;6.6;;;4.4;;
72123;SDS011;63818;37.134;-8.548;2023-07-29T07:23:00;6.5;;;4.4;;
72123;SDS011;63818;37.134;-8.548;2023-07-29T07:27:46;6.4;;;4.3;;
72123;SDS011;63818;37.134;-8.548;2023-07-29T07:32:32;7.3;;;4.4;;
72123;SDS011;63818;37.134;-8.548;2023-07-29T07:37:18;7.2;;;4.2;;
72123;SDS011;63818;37.134;-8.548;2023-07-29T07:42:04;7.8;;;4.2;;
72123;SDS011;63818;37.134;-8.548;2023-07-29T07:46:50;7.7;;;4.3;;
72123;SDS011;63818;37.134;-8.548;2023-07-29T07:51:36;6.6;;;4.4;;
72123;SDS011;63818;37.134;-8.548;2023-07-29T07:56:22;7.7;;;4.4;;
72123;SDS011;63818;37.134;-8.548;2023-07-29T08:01:08;9.8;;;4.4;;
72123;SDS011;63818;37.134;-8.548;2023-07-29T08:05:55;8.8;;;4.4;;
72123;SDS011;63818;37.134;-8.548;2023-07-29T08:10:41;7.3;;;4.4;;
72123;SDS011;63818;37.134;-8.548;2023-07-29T08:15:27;7.4;;;4.5;;
72123;SDS011;63818;37.134;-8.548;2023-07-29T08:20:13;6.4;;;4.5;;
72123;SDS011;63818;37.134;-8.548;2023-07-29T08:24:59;6.4;;;4.3;;
72123;SDS011;63818;37.134;-8.548;2023-07-29T08:29:46;6.6;;;4.4;;
72123;SDS011;63818;37.134;-8.548;2023-07-29T08:34:32;6.8;;;4.5;;
72123;SDS011;63818;37.134;-8.548;2023-07-29T08:39:18;6.9;;;4.4;;
72123;SDS011;63818;37.134;-8.548;2023-07-29T08:44:06;8.5;;;4.7;;
72123;SDS011;63818;37.134;-8.548;2023-07-29T08:48:55;9.2;;;4.8;;
72123;SDS011;63818;37.134;-8.548;2023-07-29T08:53:42;7.7;;;4.5;;
72123;SDS011;63818;37.134;-8.548;2023-07-29T08:58:29;8.0;;;4.4;;
72123;SDS011;63818;37.134;-8.548;2023-07-29T09:03:15;8.2;;;4.4;;
72123;SDS011;63818;37.134;-8.548;2023-07-29T09:08:01;7.5;;;4.5;;
72123;SDS011;63818;37.134;-8.548;2023-07-29T09:12:48;8.3;;;4.7;;
72123;SDS011;63818;37.134;-8.548;2023-07-29T09:17:35;7.7;;;4.6;;
72123;SDS011;63818;37.134;-8.548;2023-07-29T09:22:21;8.2;;;4.8;;
72123;SDS011;63818;37.134;-8.548;2023-07-29T09:27:08;10.2;;;5.1;;
72123;SDS011;63818;37.134;-8.548;2023-07-29T09:31:54;9.8;;;4.7;;
72123;SDS011;63818;37.134;-8.548;2023-07-29T09:36:45;8.5;;;4.4;;
72123;SDS011;63818;37.134;-8.548;2023-07-29T09:41:31;8.9;;;4.3;;
72123;SDS011;63818;37.134;-8.548;2023-07-29T09:46:19;8.9;;;4.3;;
72123;SDS011;63818;37.134;-8.548;2023-07-29T09:51:14;8.7;;;4.5;;
72123;SDS011;63818;37.134;-8.548;2023-07-29T09:56:01;8.2;;;4.6;;
72123;SDS011;63818;37.134;-8.548;2023-07-29T10:00:48;7.3;;;4.5;;
72123;SDS011;63818;37.134;-8.548;2023-07-29T10:05:34;8.0;;;4.5;;
72123;SDS011;63818;37.134;-8.548;2023-07-29T10:10:20;8.2;;;4.6;;
72123;SDS011;63818;37.134;-8.548;2023-07-29T10:15:07;8.0;;;4.7;;
72123;SDS011;63818;37.134;-8.548;2023-07-29T10:19:55;8.2;;;4.7;;
72123;SDS011;63818;37.134;-8.548;2023-07-29T10:24:42;8.7;;;4.7;;
72123;SDS011;63818;37.134;-8.548;2023-07-29T10:29:30;7.6;;;4.6;;
72123;SDS011;63818;37.134;-8.548;2023-07-29T10:34:17;8.2;;;4.6;;
72123;SDS011;63818;37.134;-8.548;2023-07-29T10:39:05;9.7;;;4.7;;
72123;SDS011;63818;37.134;-8.548;2023-07-29T10:43:52;9.2;;;4.5;;
72123;SDS011;63818;37.134;-8.548;2023-07-29T10:48:44;12.7;;;4.7;;
72123;SDS011;63818;37.134;-8.548;2023-07-29T10:53:35;13.5;;;5.2;;
72123;SDS011;63818;37.134;-8.548;2023-07-29T10:58:22;11.0;;;5.1;;
72123;SDS011;63818;37.134;-8.548;2023-07-29T11:03:09;9.6;;;4.7;;
72123;SDS011;63818;37.134;-8.548;2023-07-29T11:07:55;10.1;;;4.6;;
72123;SDS011;63818;37.134;-8.548;2023-07-29T11:12:42;11.5;;;4.6;;
72123;SDS011;63818;37.134;-8.548;2023-07-29T11:17:29;10.6;;;4.6;;
72123;SDS011;63818;37.134;-8.548;2023-07-29T11:22:18;8.4;;;4.6;;
72123;SDS011;63818;37.134;-8.548;2023-07-29T11:27:05;6.4;;;4.5;;
72123;SDS011;63818;37.134;-8.548;2023-07-29T11:31:52;7.0;;;4.6;;
72123;SDS011;63818;37.134;-8.548;2023-07-29T11:36:39;9.4;;;4.8;;
72123;SDS011;63818;37.134;-8.548;2023-07-29T11:41:29;9.6;;;4.6;;
72123;SDS011;63818;37.134;-8.548;2023-07-29T11:46:15;7.7;;;4.5;;
72123;SDS011;63818;37.134;-8.548;2023-07-29T11:51:01;8.6;;;5.3;;
72123;SDS011;63818;37.134;-8.548;2023-07-29T11:55:51;9.8;;;5.4;;
72123;SDS011;63818;37.134;-8.548;2023-07-29T12:00:38;8.8;;;4.7;;
72123;SDS011;63818;37.134;-8.548;2023-07-29T12:05:23;8.1;;;4.8;;
72123;SDS011;63818;37.134;-8.548;2023-07-29T12:10:11;12.6;;;4.9;;
72123;SDS011;63818;37.134;-8.548;2023-07-29T12:14:57;11.8;;;4.8;;
72123;SDS011;63818;37.134;-8.548;2023-07-29T12:19:43;9.0;;;4.9;;
72123;SDS011;63818;37.134;-8.548;2023-07-29T12:24:29;10.9;;;6.8;;
72123;SDS011;63818;37.134;-8.548;2023-07-29T12:29:16;12.4;;;7.4;;
72123;SDS011;63818;37.134;-8.548;2023-07-29T12:34:03;11.1;;;6.0;;
72123;SDS011;63818;37.134;-8.548;2023-07-29T12:38:48;10.2;;;5.5;;
72123;SDS011;63818;37.134;-8.548;2023-07-29T12:43:36;10.5;;;5.5;;
72123;SDS011;63818;37.134;-8.548;2023-07-29T12:48:23;9.3;;;5.5;;
72123;SDS011;63818;37.134;-8.548;2023-07-29T12:53:11;10.0;;;5.7;;
72123;SDS011;63818;37.134;-8.548;2023-07-29T12:57:59;12.2;;;5.8;;
72123;SDS011;63818;37.134;-8.548;2023-07-29T13:02:45;11.3;;;5.5;;
72123;SDS011;63818;37.134;-8.548;2023-07-29T13:07:32;9.2;;;5.2;;
72123;SDS011;63818;37.134;-8.548;2023-07-29T13:12:18;9.5;;;5.4;;
72123;SDS011;63818;37.134;-8.548;2023-07-29T13:17:04;10.2;;;5.5;;
72123;SDS011;63818;37.134;-8.548;2023-07-29T13:21:50;9.4;;;5.2;;
72123;SDS011;63818;37.134;-8.548;2023-07-29T13:26:36;8.8;;;5.3;;
72123;SDS011;63818;37.134;-8.548;2023-07-29T13:31:22;8.9;;;5.1;;
72123;SDS011;63818;37.134;-8.548;2023-07-29T13:36:08;8.7;;;4.8;;
72123;SDS011;63818;37.134;-8.548;2023-07-29T13:40:54;7.5;;;4.8;;
72123;SDS011;63818;37.134;-8.548;2023-07-29T13:45:40;7.9;;;4.7;;
72123;SDS011;63818;37.134;-8.548;2023-07-29T13:50:29;8.6;;;4.7;;
72123;SDS011;63818;37.134;-8.548;2023-07-29T13:55:15;8.0;;;4.9;;
72123;SDS011;63818;37.134;-8.548;2023-07-29T14:00:03;9.2;;;5.0;;
72123;SDS011;63818;37.134;-8.548;2023-07-29T14:04:49;10.5;;;4.7;;
72123;SDS011;63818;37.134;-8.548;2023-07-29T14:09:38;10.5;;;4.6;;
72123;SDS011;63818;37.134;-8.548;2023-07-29T14:14:24;9.8;;;4.7;;
72123;SDS011;63818;37.134;-8.548;2023-07-29T14:19:11;9.4;;;4.7;;
72123;SDS011;63818;37.134;-8.548;2023-07-29T14:23:57;10.2;;;4.5;;
72123;SDS011;63818;37.134;-8.548;2023-07-29T14:28:44;10.2;;;4.4;;
72123;SDS011;63818;37.134;-8.548;2023-07-29T14:33:30;8.4;;;4.6;;
72123;SDS011;63818;37.134;-8.548;2023-07-29T14:38:16;7.3;;;4.7;;
72123;SDS011;63818;37.134;-8.548;2023-07-29T14:43:03;11.8;;;4.6;;
72123;SDS011;63818;37.134;-8.548;2023-07-29T14:47:49;11.9;;;4.5;;
72123;SDS011;63818;37.134;-8.548;2023-07-29T14:52:35;9.3;;;4.4;;
72123;SDS011;63818;37.134;-8.548;2023-07-29T14:57:22;10.9;;;4.4;;
72123;SDS011;63818;37.134;-8.548;2023-07-29T15:02:10;9.8;;;4.4;;
72123;SDS011;63818;37.134;-8.548;2023-07-29T15:06:56;7.9;;;4.5;;
72123;SDS011;63818;37.134;-8.548;2023-07-29T15:11:42;9.1;;;4.5;;
72123;SDS011;63818;37.134;-8.548;2023-07-29T15:16:31;10.0;;;4.4;;
72123;SDS011;63818;37.134;-8.548;2023-07-29T15:21:17;9.2;;;4.3;;
72123;SDS011;63818;37.134;-8.548;2023-07-29T15:26:03;8.2;;;4.4;;
72123;SDS011;63818;37.134;-8.548;2023-07-29T15:30:49;6.9;;;4.5;;
72123;SDS011;63818;37.134;-8.548;2023-07-29T15:35:38;8.2;;;4.4;;
72123;SDS011;63818;37.134;-8.548;2023-07-29T15:40:25;8.0;;;4.4;;
72123;SDS011;63818;37.134;-8.548;2023-07-29T15:45:11;9.0;;;4.5;;
72123;SDS011;63818;37.134;-8.548;2023-07-29T15:49:57;9.1;;;4.5;;
72123;SDS011;63818;37.134;-8.548;2023-07-29T15:54:43;9.0;;;4.4;;
72123;SDS011;63818;37.134;-8.548;2023-07-29T15:59:29;11.6;;;4.4;;
72123;SDS011;63818;37.134;-8.548;2023-07-29T16:04:15;9.7;;;4.3;;
72123;SDS011;63818;37.134;-8.548;2023-07-29T16:09:01;7.1;;;4.2;;
72123;SDS011;63818;37.134;-8.548;2023-07-29T16:13:47;6.2;;;4.2;;
72123;SDS011;63818;37.134;-8.548;2023-07-29T16:18:33;6.4;;;4.3;;
72123;SDS011;63818;37.134;-8.548;2023-07-29T16:23:20;6.7;;;4.3;;
72123;SDS011;63818;37.134;-8.548;2023-07-29T16:28:06;6.7;;;4.3;;
72123;SDS011;63818;37.134;-8.548;2023-07-29T16:32:54;7.0;;;4.3;;
72123;SDS011;63818;37.134;-8.548;2023-07-29T16:37:40;8.4;;;4.4;;
72123;SDS011;63818;37.134;-8.548;2023-07-29T16:42:26;10.3;;;4.3;;
72123;SDS011;63818;37.134;-8.548;2023-07-29T16:47:15;11.3;;;4.6;;
72123;SDS011;63818;37.134;-8.548;2023-07-29T16:52:01;11.9;;;4.7;;
72123;SDS011;63818;37.134;-8.548;2023-07-29T16:56:47;9.9;;;4.8;;
72123;SDS011;63818;37.134;-8.548;2023-07-29T17:01:33;7.4;;;4.6;;
72123;SDS011;63818;37.134;-8.548;2023-07-29T17:06:19;8.2;;;4.3;;
72123;SDS011;63818;37.134;-8.548;2023-07-29T17:11:05;8.6;;;4.4;;
72123;SDS011;63818;37.134;-8.548;2023-07-29T17:15:51;8.1;;;4.4;;
72123;SDS011;63818;37.134;-8.548;2023-07-29T17:20:37;7.2;;;4.4;;
72123;SDS011;63818;37.134;-8.548;2023-07-29T17:25:24;6.1;;;4.3;;
72123;SDS011;63818;37.134;-8.548;2023-07-29T17:30:10;7.6;;;4.5;;
72123;SDS011;63818;37.134;-8.548;2023-07-29T17:34:57;8.0;;;4.5;;
72123;SDS011;63818;37.134;-8.548;2023-07-29T17:39:45;8.5;;;4.4;;
72123;SDS011;63818;37.134;-8.548;2023-07-29T17:44:31;7.8;;;4.3;;
72123;SDS011;63818;37.134;-8.548;2023-07-29T17:49:19;5.7;;;4.2;;
72123;SDS011;63818;37.134;-8.548;2023-07-29T17:54:05;6.0;;;4.3;;
72123;SDS011;63818;37.134;-8.548;2023-07-29T17:58:51;7.3;;;4.2;;
72123;SDS011;63818;37.134;-8.548;2023-07-29T18:03:39;8.9;;;4.3;;
72123;SDS011;63818;37.134;-8.548;2023-07-29T18:08:25;7.3;;;4.2;;
72123;SDS011;63818;37.134;-8.548;2023-07-29T18:13:12;6.1;;;4.1;;
72123;SDS011;63818;37.134;-8.548;2023-07-29T18:18:01;6.1;;;4.0;;
72123;SDS011;63818;37.134;-8.548;2023-07-29T18:22:47;5.8;;;4.1;;
72123;SDS011;63818;37.134;-8.548;2023-07-29T18:27:33;5.9;;;4.3;;
72123;SDS011;63818;37.134;-8.548;2023-07-29T18:32:19;9.9;;;4.4;;
72123;SDS011;63818;37.134;-8.548;2023-07-29T18:37:08;10.1;;;4.4;;
72123;SDS011;63818;37.134;-8.548;2023-07-29T18:41:53;6.3;;;4.3;;
72123;SDS011;63818;37.134;-8.548;2023-07-29T18:46:39;7.3;;;4.4;;
72123;SDS011;63818;37.134;-8.548;2023-07-29T18:51:25;8.0;;;4.4;;
72123;SDS011;63818;37.134;-8.548;2023-07-29T18:56:12;8.5;;;4.3;;
72123;SDS011;63818;37.134;-8.548;2023-07-29T19:00:58;8.0;;;4.3;;
72123;SDS011;63818;37.134;-8.548;2023-07-29T19:05:44;6.5;;;4.3;;
72123;SDS011;63818;37.134;-8.548;2023-07-29T19:10:30;5.6;;;4.1;;
72123;SDS011;63818;37.134;-8.548;2023-07-29T19:15:16;6.2;;;4.1;;
72123;SDS011;63818;37.134;-8.548;2023-07-29T19:20:05;8.7;;;4.3;;
72123;SDS011;63818;37.134;-8.548;2023-07-29T19:24:51;8.3;;;4.4;;
72123;SDS011;63818;37.134;-8.548;2023-07-29T19:29:37;6.2;;;4.3;;
72123;SDS011;63818;37.134;-8.548;2023-07-29T19:34:23;7.8;;;4.4;;
72123;SDS011;63818;37.134;-8.548;2023-07-29T19:39:09;8.5;;;4.5;;
72123;SDS011;63818;37.134;-8.548;2023-07-29T19:43:57;7.3;;;4.4;;
72123;SDS011;63818;37.134;-8.548;2023-07-29T19:48:46;6.7;;;4.3;;
72123;SDS011;63818;37.134;-8.548;2023-07-29T19:53:32;7.2;;;4.4;;
72123;SDS011;63818;37.134;-8.548;2023-07-29T19:58:18;8.2;;;4.5;;
72123;SDS011;63818;37.134;-8.548;2023-07-29T20:03:07;8.4;;;4.6;;
72123;SDS011;63818;37.134;-8.548;2023-07-29T20:08:00;8.4;;;4.6;;
72123;SDS011;63818;37.134;-8.548;2023-07-29T20:12:46;7.4;;;4.4;;
72123;SDS011;63818;37.134;-8.548;2023-07-29T20:17:36;8.4;;;4.9;;
72123;SDS011;63818;37.134;-8.548;2023-07-29T20:22:22;11.3;;;5.8;;
72123;SDS011;63818;37.134;-8.548;2023-07-29T20:27:08;11.9;;;5.9;;
72123;SDS011;63818;37.134;-8.548;2023-07-29T20:31:57;9.3;;;5.2;;
72123;SDS011;63818;37.134;-8.548;2023-07-29T20:36:43;7.4;;;4.8;;
72123;SDS011;63818;37.134;-8.548;2023-07-29T20:41:29;8.1;;;4.8;;
72123;SDS011;63818;37.134;-8.548;2023-07-29T20:46:20;10.3;;;4.9;;
72123;SDS011;63818;37.134;-8.548;2023-07-29T20:51:07;10.6;;;5.3;;
72123;SDS011;63818;37.134;-8.548;2023-07-29T20:55:52;8.4;;;5.1;;
72123;SDS011;63818;37.134;-8.548;2023-07-29T21:00:39;7.7;;;4.9;;
72123;SDS011;63818;37.134;-8.548;2023-07-29T21:05:27;8.6;;;5.2;;
72123;SDS011;63818;37.134;-8.548;2023-07-29T21:10:13;11.0;;;5.2;;
72123;SDS011;63818;37.134;-8.548;2023-07-29T21:14:59;11.0;;;5.1;;
72123;SDS011;63818;37.134;-8.548;2023-07-29T21:19:45;10.4;;;5.2;;
72123;SDS011;63818;37.134;-8.548;2023-07-29T21:24:31;11.0;;;5.3;;
72123;SDS011;63818;37.134;-8.548;2023-07-29T21:29:20;11.0;;;5.6;;
72123;SDS011;63818;37.134;-8.548;2023-07-29T21:34:05;11.0;;;5.7;;
72123;SDS011;63818;37.134;-8.548;2023-07-29T21:38:54;11.8;;;5.5;;
72123;SDS011;63818;37.134;-8.548;2023-07-29T21:43:40;10.8;;;5.3;;
72123;SDS011;63818;37.134;-8.548;2023-07-29T21:48:26;8.7;;;5.4;;
72123;SDS011;63818;37.134;-8.548;2023-07-29T21:53:12;9.1;;;5.2;;
72123;SDS011;63818;37.134;-8.548;2023-07-29T21:57:58;10.9;;;5.3;;
72123;SDS011;63818;37.134;-8.548;2023-07-29T22:02:44;11.3;;;5.5;;
72123;SDS011;63818;37.134;-8.548;2023-07-29T22:07:30;9.1;;;5.4;;
72123;SDS011;63818;37.134;-8.548;2023-07-29T22:12:16;8.4;;;5.2;;
72123;SDS011;63818;37.134;-8.548;2023-07-29T22:17:03;8.8;;;5.3;;
72123;SDS011;63818;37.134;-8.548;2023-07-29T22:21:49;10.3;;;5.6;;
72123;SDS011;63818;37.134;-8.548;2023-07-29T22:26:34;9.9;;;5.4;;
72123;SDS011;63818;37.134;-8.548;2023-07-29T22:31:21;8.6;;;5.1;;
72123;SDS011;63818;37.134;-8.548;2023-07-29T22:36:09;8.4;;;5.3;;
72123;SDS011;63818;37.134;-8.548;2023-07-29T22:40:55;8.3;;;5.4;;
72123;SDS011;63818;37.134;-8.548;2023-07-29T22:45:41;9.7;;;5.4;;
72123;SDS011;63818;37.134;-8.548;2023-07-29T22:50:27;10.3;;;5.5;;
72123;SDS011;63818;37.134;-8.548;2023-07-29T22:55:13;9.3;;;5.2;;
72123;SDS011;63818;37.134;-8.548;2023-07-29T22:59:59;11.0;;;5.3;;
72123;SDS011;63818;37.134;-8.548;2023-07-29T23:04:45;11.8;;;5.4;;
72123;SDS011;63818;37.134;-8.548;2023-07-29T23:09:31;11.0;;;5.5;;
72123;SDS011;63818;37.134;-8.548;2023-07-29T23:14:17;10.8;;;5.6;;
72123;SDS011;63818;37.134;-8.548;2023-07-29T23:19:03;12.4;;;5.8;;
72123;SDS011;63818;37.134;-8.548;2023-07-29T23:23:49;12.5;;;5.9;;
72123;SDS011;63818;37.134;-8.548;2023-07-29T23:28:37;10.2;;;5.6;;
72123;SDS011;63818;37.134;-8.548;2023-07-29T23:33:23;9.3;;;5.5;;
72123;SDS011;63818;37.134;-8.548;2023-07-29T23:38:09;9.9;;;5.5;;
72123;SDS011;63818;37.134;-8.548;2023-07-29T23:42:57;10.4;;;5.6;;
72123;SDS011;63818;37.134;-8.548;2023-07-29T23:47:45;9.1;;;5.4;;
72123;SDS011;63818;37.134;-8.548;2023-07-29T23:52:31;9.4;;;5.3;;
72123;SDS011;63818;37.134;-8.548;2023-07-29T23:57:18;9.8;;;5.5;;
